sensor_id;sensor_type;location;lat;lon;timestamp;pressure;altitude;pressure_sealevel;temperature;humidity
54459;BME280;40368;49.350;8.152;2023-03-26T00:00:39;996.7;;;14.13;53.7
54459;BME280;40368;49.350;8.152;2023-03-26T00:01:38;996.8;;;14.12;53.78
54459;BME280;40368;49.350;8.152;2023-03-26T00:02:38;996.7;;;14.11;53.73
54459;BME280;40368;49.350;8.152;2023-03-26T00:03:38;996.7;;;14.11;53.79
54459;BME280;40368;49.350;8.152;2023-03-26T00:04:38;996.7;;;14.05;54.04
54459;BME280;40368;49.350;8.152;2023-03-26T00:05:38;996.7;;;14.02;54.04
54459;BME280;40368;49.350;8.152;2023-03-26T00:06:38;996.7;;;13.99;54.03
54459;BME280;40368;49.350;8.152;2023-03-26T00:07:38;996.7;;;13.96;54.17
54459;BME280;40368;49.350;8.152;2023-03-26T00:08:39;996.7;;;13.92;54.23
54459;BME280;40368;49.350;8.152;2023-03-26T00:09:38;996.8;;;13.91;54.08
54459;BME280;40368;49.350;8.152;2023-03-26T00:10:39;996.8;;;13.89;54.16
54459;BME280;40368;49.350;8.152;2023-03-26T00:11:38;996.8;;;13.89;54.2
54459;BME280;40368;49.350;8.152;2023-03-26T00:12:38;996.7;;;13.92;54.24
54459;BME280;40368;49.350;8.152;2023-03-26T00:13:38;996.8;;;13.92;54.29
54459;BME280;40368;49.350;8.152;2023-03-26T00:14:38;996.7;;;13.91;54.2
54459;BME280;40368;49.350;8.152;2023-03-26T00:15:38;996.7;;;13.92;54.14
54459;BME280;40368;49.350;8.152;2023-03-26T00:16:38;996.7;;;13.93;54.22
54459;BME280;40368;49.350;8.152;2023-03-26T00:17:38;996.7;;;13.89;54.1
54459;BME280;40368;49.350;8.152;2023-03-26T00:18:38;996.7;;;13.9;54.37
54459;BME280;40368;49.350;8.152;2023-03-26T00:20:38;996.8;;;13.89;54.38
54459;BME280;40368;49.350;8.152;2023-03-26T00:21:38;996.7;;;13.9;54.32
54459;BME280;40368;49.350;8.152;2023-03-26T00:22:39;996.7;;;13.94;54.1
54459;BME280;40368;49.350;8.152;2023-03-26T00:23:38;996.7;;;13.93;54.5
54459;BME280;40368;49.350;8.152;2023-03-26T00:24:38;996.7;;;13.91;54.37
54459;BME280;40368;49.350;8.152;2023-03-26T00:25:38;996.6;;;13.87;54.16
54459;BME280;40368;49.350;8.152;2023-03-26T00:26:38;996.6;;;13.88;54.26
54459;BME280;40368;49.350;8.152;2023-03-26T00:27:38;996.6;;;13.87;54.42
54459;BME280;40368;49.350;8.152;2023-03-26T00:28:39;996.6;;;13.83;54.21
54459;BME280;40368;49.350;8.152;2023-03-26T00:29:38;996.7;;;13.78;54.46
54459;BME280;40368;49.350;8.152;2023-03-26T00:30:38;996.7;;;13.72;54.35
54459;BME280;40368;49.350;8.152;2023-03-26T00:31:38;996.6;;;13.72;54.47
54459;BME280;40368;49.350;8.152;2023-03-26T00:32:38;996.6;;;13.76;54.37
54459;BME280;40368;49.350;8.152;2023-03-26T00:33:38;996.5;;;13.8;54.25
54459;BME280;40368;49.350;8.152;2023-03-26T00:34:38;996.6;;;13.84;54.31
54459;BME280;40368;49.350;8.152;2023-03-26T00:35:38;996.6;;;13.79;54.85
54459;BME280;40368;49.350;8.152;2023-03-26T00:36:38;996.5;;;13.76;54.63
54459;BME280;40368;49.350;8.152;2023-03-26T00:37:38;996.5;;;13.73;54.4
54459;BME280;40368;49.350;8.152;2023-03-26T00:38:39;996.4;;;13.7;54.5
54459;BME280;40368;49.350;8.152;2023-03-26T00:39:38;996.4;;;13.72;54.44
54459;BME280;40368;49.350;8.152;2023-03-26T00:40:38;996.4;;;13.73;54.33
54459;BME280;40368;49.350;8.152;2023-03-26T00:41:39;996.4;;;13.77;54.23
54459;BME280;40368;49.350;8.152;2023-03-26T00:42:38;996.4;;;13.79;54.09
54459;BME280;40368;49.350;8.152;2023-03-26T00:43:38;996.4;;;13.81;54.19
54459;BME280;40368;49.350;8.152;2023-03-26T00:44:38;996.4;;;13.82;54.22
54459;BME280;40368;49.350;8.152;2023-03-26T00:45:38;996.4;;;13.8;54.15
54459;BME280;40368;49.350;8.152;2023-03-26T00:46:38;996.4;;;13.76;54.25
54459;BME280;40368;49.350;8.152;2023-03-26T00:47:38;996.4;;;13.76;54.26
54459;BME280;40368;49.350;8.152;2023-03-26T00:48:38;996.4;;;13.77;54.3
54459;BME280;40368;49.350;8.152;2023-03-26T00:49:38;996.4;;;13.82;54.28
54459;BME280;40368;49.350;8.152;2023-03-26T00:50:38;996.4;;;13.84;54.27
54459;BME280;40368;49.350;8.152;2023-03-26T00:51:38;996.4;;;13.86;54.23
54459;BME280;40368;49.350;8.152;2023-03-26T00:52:38;996.3;;;13.87;54.35
54459;BME280;40368;49.350;8.152;2023-03-26T00:53:38;996.4;;;13.88;54.07
54459;BME280;40368;49.350;8.152;2023-03-26T00:54:38;996.3;;;13.88;54.16
54459;BME280;40368;49.350;8.152;2023-03-26T00:55:38;996.4;;;13.88;54.08
54459;BME280;40368;49.350;8.152;2023-03-26T00:56:38;996.3;;;13.89;54.15
54459;BME280;40368;49.350;8.152;2023-03-26T00:57:38;996.3;;;13.88;54.12
54459;BME280;40368;49.350;8.152;2023-03-26T00:58:38;996.3;;;13.87;54.04
54459;BME280;40368;49.350;8.152;2023-03-26T00:59:38;996.3;;;13.87;53.8
54459;BME280;40368;49.350;8.152;2023-03-26T01:00:41;996.2;;;13.87;54.05
54459;BME280;40368;49.350;8.152;2023-03-26T01:01:38;996.3;;;13.87;54.05
54459;BME280;40368;49.350;8.152;2023-03-26T01:02:38;996.3;;;13.85;54.04
54459;BME280;40368;49.350;8.152;2023-03-26T01:03:38;996.2;;;13.84;53.97
54459;BME280;40368;49.350;8.152;2023-03-26T01:04:38;996.2;;;13.85;53.92
54459;BME280;40368;49.350;8.152;2023-03-26T01:05:42;996.2;;;13.83;53.91
54459;BME280;40368;49.350;8.152;2023-03-26T01:06:38;996.3;;;13.83;54
54459;BME280;40368;49.350;8.152;2023-03-26T01:07:38;996.2;;;13.84;53.98
54459;BME280;40368;49.350;8.152;2023-03-26T01:08:40;996.2;;;13.84;53.89
54459;BME280;40368;49.350;8.152;2023-03-26T01:09:38;996.2;;;13.83;53.95
54459;BME280;40368;49.350;8.152;2023-03-26T01:10:38;996.2;;;13.82;53.93
54459;BME280;40368;49.350;8.152;2023-03-26T01:11:38;996.2;;;13.8;54.02
54459;BME280;40368;49.350;8.152;2023-03-26T01:12:40;996.2;;;13.81;53.98
54459;BME280;40368;49.350;8.152;2023-03-26T01:13:40;996.2;;;13.81;53.92
54459;BME280;40368;49.350;8.152;2023-03-26T01:15:38;996.1;;;13.8;53.89
54459;BME280;40368;49.350;8.152;2023-03-26T01:16:39;996.1;;;13.75;53.86
54459;BME280;40368;49.350;8.152;2023-03-26T01:18:38;996;;;13.75;54.38
54459;BME280;40368;49.350;8.152;2023-03-26T01:19:39;996;;;13.75;54.27
54459;BME280;40368;49.350;8.152;2023-03-26T01:20:38;996;;;13.76;54.21
54459;BME280;40368;49.350;8.152;2023-03-26T01:21:49;996;;;13.77;54.11
54459;BME280;40368;49.350;8.152;2023-03-26T01:22:49;996;;;13.77;54.25
54459;BME280;40368;49.350;8.152;2023-03-26T01:23:54;996;;;13.78;54.05
54459;BME280;40368;49.350;8.152;2023-03-26T01:24:38;996;;;13.8;54.2
54459;BME280;40368;49.350;8.152;2023-03-26T01:25:40;996;;;13.79;54.13
54459;BME280;40368;49.350;8.152;2023-03-26T01:26:42;996;;;13.78;54.08
54459;BME280;40368;49.350;8.152;2023-03-26T01:27:39;995.9;;;13.74;54.16
54459;BME280;40368;49.350;8.152;2023-03-26T01:28:38;996;;;13.73;54.21
54459;BME280;40368;49.350;8.152;2023-03-26T01:29:40;995.9;;;13.72;54.16
54459;BME280;40368;49.350;8.152;2023-03-26T01:30:39;995.9;;;13.72;54.26
54459;BME280;40368;49.350;8.152;2023-03-26T01:31:39;995.9;;;13.73;54.18
54459;BME280;40368;49.350;8.152;2023-03-26T01:32:42;996;;;13.74;53.83
54459;BME280;40368;49.350;8.152;2023-03-26T01:33:39;995.9;;;13.71;54.08
54459;BME280;40368;49.350;8.152;2023-03-26T01:34:41;995.9;;;13.71;54.04
54459;BME280;40368;49.350;8.152;2023-03-26T01:38:39;995.8;;;13.7;54.03
54459;BME280;40368;49.350;8.152;2023-03-26T01:39:40;995.8;;;13.68;54.11
54459;BME280;40368;49.350;8.152;2023-03-26T01:40:39;995.7;;;13.68;54.12
54459;BME280;40368;49.350;8.152;2023-03-26T01:41:40;995.7;;;13.69;54.04
54459;BME280;40368;49.350;8.152;2023-03-26T01:42:39;995.7;;;13.72;54.22
54459;BME280;40368;49.350;8.152;2023-03-26T01:43:40;995.7;;;13.7;54.11
54459;BME280;40368;49.350;8.152;2023-03-26T01:44:40;995.6;;;13.67;54.11
54459;BME280;40368;49.350;8.152;2023-03-26T01:45:39;995.6;;;13.67;54.26
54459;BME280;40368;49.350;8.152;2023-03-26T01:46:38;995.6;;;13.68;54.29
54459;BME280;40368;49.350;8.152;2023-03-26T01:47:38;995.6;;;13.68;54.14
54459;BME280;40368;49.350;8.152;2023-03-26T01:48:39;995.6;;;13.68;54.12
54459;BME280;40368;49.350;8.152;2023-03-26T01:49:38;995.6;;;13.7;54.14
54459;BME280;40368;49.350;8.152;2023-03-26T01:50:38;995.6;;;13.71;54.03
54459;BME280;40368;49.350;8.152;2023-03-26T01:51:39;995.6;;;13.73;54.24
54459;BME280;40368;49.350;8.152;2023-03-26T01:52:38;995.5;;;13.72;54.16
54459;BME280;40368;49.350;8.152;2023-03-26T01:53:40;995.6;;;13.72;54.05
54459;BME280;40368;49.350;8.152;2023-03-26T01:54:38;995.5;;;13.73;54.07
54459;BME280;40368;49.350;8.152;2023-03-26T01:55:40;995.5;;;13.73;54.08
54459;BME280;40368;49.350;8.152;2023-03-26T01:56:40;995.5;;;13.72;54.1
54459;BME280;40368;49.350;8.152;2023-03-26T01:57:42;995.4;;;13.65;54.11
54459;BME280;40368;49.350;8.152;2023-03-26T01:58:40;995.4;;;13.59;54.15
54459;BME280;40368;49.350;8.152;2023-03-26T01:59:51;995.4;;;13.57;54.25
54459;BME280;40368;49.350;8.152;2023-03-26T02:00:39;995.4;;;13.54;54.18
54459;BME280;40368;49.350;8.152;2023-03-26T02:01:41;995.3;;;13.54;54.28
54459;BME280;40368;49.350;8.152;2023-03-26T02:02:40;995.3;;;13.56;54.31
54459;BME280;40368;49.350;8.152;2023-03-26T02:03:39;995.4;;;13.61;54.16
54459;BME280;40368;49.350;8.152;2023-03-26T02:04:44;995.3;;;13.63;54.2
54459;BME280;40368;49.350;8.152;2023-03-26T02:05:40;995.3;;;13.66;54.06
54459;BME280;40368;49.350;8.152;2023-03-26T02:06:39;995.3;;;13.66;53.91
54459;BME280;40368;49.350;8.152;2023-03-26T02:07:39;995.2;;;13.67;54.06
54459;BME280;40368;49.350;8.152;2023-03-26T02:08:39;995.2;;;13.68;53.93
54459;BME280;40368;49.350;8.152;2023-03-26T02:09:39;995.2;;;13.68;53.92
54459;BME280;40368;49.350;8.152;2023-03-26T02:10:39;995.2;;;13.7;54.01
54459;BME280;40368;49.350;8.152;2023-03-26T02:11:38;995.2;;;13.7;54.06
54459;BME280;40368;49.350;8.152;2023-03-26T02:12:38;995.1;;;13.7;54.02
54459;BME280;40368;49.350;8.152;2023-03-26T02:13:38;995.1;;;13.71;53.96
54459;BME280;40368;49.350;8.152;2023-03-26T02:14:38;995.1;;;13.69;53.97
54459;BME280;40368;49.350;8.152;2023-03-26T02:15:38;995.1;;;13.64;54.24
54459;BME280;40368;49.350;8.152;2023-03-26T02:16:38;995.1;;;13.59;54.29
54459;BME280;40368;49.350;8.152;2023-03-26T02:17:38;995;;;13.59;54.6
54459;BME280;40368;49.350;8.152;2023-03-26T02:18:38;995;;;13.57;54.52
54459;BME280;40368;49.350;8.152;2023-03-26T02:19:39;995;;;13.58;54.35
54459;BME280;40368;49.350;8.152;2023-03-26T02:20:38;995;;;13.58;54.48
54459;BME280;40368;49.350;8.152;2023-03-26T02:21:38;995;;;13.59;54.39
54459;BME280;40368;49.350;8.152;2023-03-26T02:22:38;995;;;13.59;54.22
54459;BME280;40368;49.350;8.152;2023-03-26T02:23:38;995;;;13.59;54.52
54459;BME280;40368;49.350;8.152;2023-03-26T02:24:38;995.1;;;13.57;54.4
54459;BME280;40368;49.350;8.152;2023-03-26T02:25:38;994.9;;;13.56;54.53
54459;BME280;40368;49.350;8.152;2023-03-26T02:26:38;995;;;13.57;54.53
54459;BME280;40368;49.350;8.152;2023-03-26T02:27:38;995;;;13.55;54.62
54459;BME280;40368;49.350;8.152;2023-03-26T02:28:38;994.9;;;13.55;54.73
54459;BME280;40368;49.350;8.152;2023-03-26T02:29:38;994.9;;;13.56;54.65
54459;BME280;40368;49.350;8.152;2023-03-26T02:30:38;994.9;;;13.57;54.69
54459;BME280;40368;49.350;8.152;2023-03-26T02:31:38;994.9;;;13.58;54.75
54459;BME280;40368;49.350;8.152;2023-03-26T02:32:38;994.9;;;13.59;54.54
54459;BME280;40368;49.350;8.152;2023-03-26T02:33:38;994.9;;;13.61;54.69
54459;BME280;40368;49.350;8.152;2023-03-26T02:34:38;994.8;;;13.58;54.9
54459;BME280;40368;49.350;8.152;2023-03-26T02:35:38;994.9;;;13.56;54.82
54459;BME280;40368;49.350;8.152;2023-03-26T02:36:38;994.8;;;13.55;54.69
54459;BME280;40368;49.350;8.152;2023-03-26T02:37:38;994.8;;;13.56;54.84
54459;BME280;40368;49.350;8.152;2023-03-26T02:38:38;994.9;;;13.55;54.91
54459;BME280;40368;49.350;8.152;2023-03-26T02:39:38;994.8;;;13.54;55.41
54459;BME280;40368;49.350;8.152;2023-03-26T02:41:38;994.8;;;13.48;55.26
54459;BME280;40368;49.350;8.152;2023-03-26T02:42:38;994.7;;;13.5;54.94
54459;BME280;40368;49.350;8.152;2023-03-26T02:43:38;994.7;;;13.52;55.04
54459;BME280;40368;49.350;8.152;2023-03-26T02:44:38;994.7;;;13.51;54.96
54459;BME280;40368;49.350;8.152;2023-03-26T02:45:38;994.6;;;13.49;55.26
54459;BME280;40368;49.350;8.152;2023-03-26T02:46:38;994.7;;;13.49;55.08
54459;BME280;40368;49.350;8.152;2023-03-26T02:47:38;994.7;;;13.49;55.03
54459;BME280;40368;49.350;8.152;2023-03-26T02:48:38;994.7;;;13.49;55.33
54459;BME280;40368;49.350;8.152;2023-03-26T02:49:38;994.7;;;13.48;55.2
54459;BME280;40368;49.350;8.152;2023-03-26T02:50:38;994.6;;;13.48;55.06
54459;BME280;40368;49.350;8.152;2023-03-26T02:51:38;994.6;;;13.49;54.99
54459;BME280;40368;49.350;8.152;2023-03-26T02:52:38;994.6;;;13.51;55.08
54459;BME280;40368;49.350;8.152;2023-03-26T02:53:38;994.6;;;13.52;55.25
54459;BME280;40368;49.350;8.152;2023-03-26T02:54:38;994.6;;;13.51;54.9
54459;BME280;40368;49.350;8.152;2023-03-26T02:55:38;994.6;;;13.5;55
54459;BME280;40368;49.350;8.152;2023-03-26T02:56:38;994.6;;;13.49;55.05
54459;BME280;40368;49.350;8.152;2023-03-26T02:57:38;994.5;;;13.51;55.04
54459;BME280;40368;49.350;8.152;2023-03-26T02:58:38;994.5;;;13.51;55.05
54459;BME280;40368;49.350;8.152;2023-03-26T02:59:38;994.4;;;13.51;55.05
54459;BME280;40368;49.350;8.152;2023-03-26T03:00:38;994.4;;;13.52;54.94
54459;BME280;40368;49.350;8.152;2023-03-26T03:01:38;994.5;;;13.54;54.95
54459;BME280;40368;49.350;8.152;2023-03-26T03:02:38;994.5;;;13.51;55.35
54459;BME280;40368;49.350;8.152;2023-03-26T03:03:38;994.4;;;13.49;55.04
54459;BME280;40368;49.350;8.152;2023-03-26T03:04:38;994.5;;;13.5;55.12
54459;BME280;40368;49.350;8.152;2023-03-26T03:05:38;994.5;;;13.5;55
54459;BME280;40368;49.350;8.152;2023-03-26T03:06:38;994.4;;;13.5;54.72
54459;BME280;40368;49.350;8.152;2023-03-26T03:07:38;994.4;;;13.5;54.83
54459;BME280;40368;49.350;8.152;2023-03-26T03:08:38;994.4;;;13.52;54.83
54459;BME280;40368;49.350;8.152;2023-03-26T03:09:38;994.4;;;13.54;54.81
54459;BME280;40368;49.350;8.152;2023-03-26T03:10:38;994.4;;;13.53;54.88
54459;BME280;40368;49.350;8.152;2023-03-26T03:11:38;994.4;;;13.53;54.93
54459;BME280;40368;49.350;8.152;2023-03-26T03:12:38;994.3;;;13.54;55.02
54459;BME280;40368;49.350;8.152;2023-03-26T03:13:38;994.3;;;13.56;54.87
54459;BME280;40368;49.350;8.152;2023-03-26T03:14:38;994.3;;;13.56;54.8
54459;BME280;40368;49.350;8.152;2023-03-26T03:15:38;994.3;;;13.58;54.54
54459;BME280;40368;49.350;8.152;2023-03-26T03:16:38;994.3;;;13.59;54.44
54459;BME280;40368;49.350;8.152;2023-03-26T03:17:38;994.2;;;13.59;54.37
54459;BME280;40368;49.350;8.152;2023-03-26T03:18:38;994.2;;;13.6;54.65
54459;BME280;40368;49.350;8.152;2023-03-26T03:19:38;994.2;;;13.61;54.67
54459;BME280;40368;49.350;8.152;2023-03-26T03:20:38;994.2;;;13.6;54.66
54459;BME280;40368;49.350;8.152;2023-03-26T03:21:39;994.1;;;13.58;54.77
54459;BME280;40368;49.350;8.152;2023-03-26T03:22:38;994.1;;;13.58;54.85
54459;BME280;40368;49.350;8.152;2023-03-26T03:23:39;994;;;13.57;54.92
54459;BME280;40368;49.350;8.152;2023-03-26T03:24:38;994;;;13.57;54.75
54459;BME280;40368;49.350;8.152;2023-03-26T03:25:38;994;;;13.57;54.8
54459;BME280;40368;49.350;8.152;2023-03-26T03:26:38;993.9;;;13.56;54.86
54459;BME280;40368;49.350;8.152;2023-03-26T03:27:39;993.9;;;13.56;54.74
54459;BME280;40368;49.350;8.152;2023-03-26T03:28:38;993.9;;;13.56;54.59
54459;BME280;40368;49.350;8.152;2023-03-26T03:29:38;994;;;13.57;54.76
54459;BME280;40368;49.350;8.152;2023-03-26T03:30:38;994;;;13.55;54.84
54459;BME280;40368;49.350;8.152;2023-03-26T03:31:38;994;;;13.55;55
54459;BME280;40368;49.350;8.152;2023-03-26T03:32:38;993.9;;;13.56;54.97
54459;BME280;40368;49.350;8.152;2023-03-26T03:33:38;993.9;;;13.56;55.16
54459;BME280;40368;49.350;8.152;2023-03-26T03:34:38;993.9;;;13.54;55.08
54459;BME280;40368;49.350;8.152;2023-03-26T03:35:38;993.9;;;13.54;55.06
54459;BME280;40368;49.350;8.152;2023-03-26T03:36:38;993.9;;;13.51;55.2
54459;BME280;40368;49.350;8.152;2023-03-26T03:37:38;993.8;;;13.49;55.15
54459;BME280;40368;49.350;8.152;2023-03-26T03:38:39;993.8;;;13.49;55.13
54459;BME280;40368;49.350;8.152;2023-03-26T03:39:38;993.7;;;13.49;55.22
54459;BME280;40368;49.350;8.152;2023-03-26T03:40:38;993.7;;;13.5;55.26
54459;BME280;40368;49.350;8.152;2023-03-26T03:41:38;993.8;;;13.51;55.47
54459;BME280;40368;49.350;8.152;2023-03-26T03:42:38;993.8;;;13.48;55.47
54459;BME280;40368;49.350;8.152;2023-03-26T03:43:38;993.8;;;13.46;55.53
54459;BME280;40368;49.350;8.152;2023-03-26T03:44:38;993.8;;;13.45;55.5
54459;BME280;40368;49.350;8.152;2023-03-26T03:45:38;993.8;;;13.43;55.52
54459;BME280;40368;49.350;8.152;2023-03-26T03:46:38;993.8;;;13.42;55.47
54459;BME280;40368;49.350;8.152;2023-03-26T03:47:38;993.8;;;13.4;55.6
54459;BME280;40368;49.350;8.152;2023-03-26T03:48:38;993.7;;;13.38;55.38
54459;BME280;40368;49.350;8.152;2023-03-26T03:49:38;993.7;;;13.41;55.31
54459;BME280;40368;49.350;8.152;2023-03-26T03:50:38;993.6;;;13.41;55.48
54459;BME280;40368;49.350;8.152;2023-03-26T03:51:38;993.6;;;13.37;55.79
54459;BME280;40368;49.350;8.152;2023-03-26T03:52:38;993.6;;;13.32;55.86
54459;BME280;40368;49.350;8.152;2023-03-26T03:53:38;993.6;;;13.3;55.53
54459;BME280;40368;49.350;8.152;2023-03-26T03:54:38;993.6;;;13.3;55.79
54459;BME280;40368;49.350;8.152;2023-03-26T03:55:38;993.6;;;13.3;55.75
54459;BME280;40368;49.350;8.152;2023-03-26T03:56:38;993.5;;;13.29;55.74
54459;BME280;40368;49.350;8.152;2023-03-26T03:57:38;993.5;;;13.31;55.49
54459;BME280;40368;49.350;8.152;2023-03-26T03:58:38;993.5;;;13.31;55.62
54459;BME280;40368;49.350;8.152;2023-03-26T03:59:38;993.5;;;13.29;55.48
54459;BME280;40368;49.350;8.152;2023-03-26T04:00:38;993.4;;;13.27;55.59
54459;BME280;40368;49.350;8.152;2023-03-26T04:01:38;993.4;;;13.29;55.36
54459;BME280;40368;49.350;8.152;2023-03-26T04:02:38;993.3;;;13.32;55.22
54459;BME280;40368;49.350;8.152;2023-03-26T04:04:38;993.3;;;13.38;55.44
54459;BME280;40368;49.350;8.152;2023-03-26T04:05:38;993.3;;;13.41;55.42
54459;BME280;40368;49.350;8.152;2023-03-26T04:06:38;993.2;;;13.41;55.58
54459;BME280;40368;49.350;8.152;2023-03-26T04:07:38;993.2;;;13.39;55.37
54459;BME280;40368;49.350;8.152;2023-03-26T04:08:38;993.2;;;13.4;55.45
54459;BME280;40368;49.350;8.152;2023-03-26T04:09:38;993.2;;;13.41;55.25
54459;BME280;40368;49.350;8.152;2023-03-26T04:10:38;993.1;;;13.41;55.14
54459;BME280;40368;49.350;8.152;2023-03-26T04:11:38;993.1;;;13.4;55.17
54459;BME280;40368;49.350;8.152;2023-03-26T04:12:38;993.1;;;13.41;55.07
54459;BME280;40368;49.350;8.152;2023-03-26T04:13:38;993;;;13.42;55.23
54459;BME280;40368;49.350;8.152;2023-03-26T04:14:39;993;;;13.42;55.25
54459;BME280;40368;49.350;8.152;2023-03-26T04:15:38;993;;;13.39;55.39
54459;BME280;40368;49.350;8.152;2023-03-26T04:16:38;992.9;;;13.39;55.44
54459;BME280;40368;49.350;8.152;2023-03-26T04:17:38;992.9;;;13.4;55.23
54459;BME280;40368;49.350;8.152;2023-03-26T04:18:38;992.9;;;13.4;55.28
54459;BME280;40368;49.350;8.152;2023-03-26T04:19:38;992.9;;;13.4;55.35
54459;BME280;40368;49.350;8.152;2023-03-26T04:20:39;992.9;;;13.38;55.28
54459;BME280;40368;49.350;8.152;2023-03-26T04:21:38;992.9;;;13.37;55.31
54459;BME280;40368;49.350;8.152;2023-03-26T04:22:38;992.8;;;13.36;55.39
54459;BME280;40368;49.350;8.152;2023-03-26T04:23:39;992.9;;;13.36;55.47
54459;BME280;40368;49.350;8.152;2023-03-26T04:24:38;992.8;;;13.35;55.46
54459;BME280;40368;49.350;8.152;2023-03-26T04:25:39;992.8;;;13.32;55.37
54459;BME280;40368;49.350;8.152;2023-03-26T04:26:38;992.8;;;13.31;55.51
54459;BME280;40368;49.350;8.152;2023-03-26T04:27:38;992.8;;;13.31;55.9
54459;BME280;40368;49.350;8.152;2023-03-26T04:28:40;992.7;;;13.29;55.43
54459;BME280;40368;49.350;8.152;2023-03-26T04:29:39;992.8;;;13.31;55.49
54459;BME280;40368;49.350;8.152;2023-03-26T04:30:38;992.8;;;13.33;55.59
54459;BME280;40368;49.350;8.152;2023-03-26T04:31:38;992.7;;;13.34;55.5
54459;BME280;40368;49.350;8.152;2023-03-26T04:32:38;992.7;;;13.36;55.36
54459;BME280;40368;49.350;8.152;2023-03-26T04:33:38;992.7;;;13.37;55.43
54459;BME280;40368;49.350;8.152;2023-03-26T04:34:38;992.7;;;13.38;55.18
54459;BME280;40368;49.350;8.152;2023-03-26T04:35:38;992.7;;;13.37;55.34
54459;BME280;40368;49.350;8.152;2023-03-26T04:36:38;992.7;;;13.39;55.29
54459;BME280;40368;49.350;8.152;2023-03-26T04:37:39;992.6;;;13.4;55.45
54459;BME280;40368;49.350;8.152;2023-03-26T04:38:39;992.7;;;13.4;55.29
54459;BME280;40368;49.350;8.152;2023-03-26T04:39:38;992.6;;;13.41;55.22
54459;BME280;40368;49.350;8.152;2023-03-26T04:40:38;992.6;;;13.4;55.02
54459;BME280;40368;49.350;8.152;2023-03-26T04:41:38;992.6;;;13.4;55.15
54459;BME280;40368;49.350;8.152;2023-03-26T04:42:38;992.6;;;13.41;55
54459;BME280;40368;49.350;8.152;2023-03-26T04:43:38;992.6;;;13.41;54.95
54459;BME280;40368;49.350;8.152;2023-03-26T04:44:38;992.5;;;13.41;55.11
54459;BME280;40368;49.350;8.152;2023-03-26T04:45:38;992.4;;;13.4;55.23
54459;BME280;40368;49.350;8.152;2023-03-26T04:46:38;992.5;;;13.41;55.33
54459;BME280;40368;49.350;8.152;2023-03-26T04:47:38;992.4;;;13.38;55.19
54459;BME280;40368;49.350;8.152;2023-03-26T04:48:38;992.4;;;13.37;54.94
54459;BME280;40368;49.350;8.152;2023-03-26T04:49:38;992.3;;;13.32;55.6
54459;BME280;40368;49.350;8.152;2023-03-26T04:50:38;992.4;;;13.26;55.6
54459;BME280;40368;49.350;8.152;2023-03-26T04:51:38;992.4;;;13.21;55.41
54459;BME280;40368;49.350;8.152;2023-03-26T04:52:38;992.4;;;13.22;55.37
54459;BME280;40368;49.350;8.152;2023-03-26T04:53:38;992.3;;;13.23;55.26
54459;BME280;40368;49.350;8.152;2023-03-26T04:54:38;992.3;;;13.23;55.38
54459;BME280;40368;49.350;8.152;2023-03-26T04:55:40;992.3;;;13.25;55.67
54459;BME280;40368;49.350;8.152;2023-03-26T04:56:39;992.3;;;13.25;55.31
54459;BME280;40368;49.350;8.152;2023-03-26T04:57:38;992.4;;;13.24;55.68
54459;BME280;40368;49.350;8.152;2023-03-26T04:58:38;992.4;;;13.16;55.84
54459;BME280;40368;49.350;8.152;2023-03-26T04:59:38;992.4;;;13.13;55.93
54459;BME280;40368;49.350;8.152;2023-03-26T05:00:39;992.4;;;13.09;55.73
54459;BME280;40368;49.350;8.152;2023-03-26T05:01:38;992.4;;;13.11;55.67
54459;BME280;40368;49.350;8.152;2023-03-26T05:02:38;992.4;;;13.14;55.88
54459;BME280;40368;49.350;8.152;2023-03-26T05:03:38;992.3;;;13.11;55.94
54459;BME280;40368;49.350;8.152;2023-03-26T05:04:38;992.3;;;13.13;55.64
54459;BME280;40368;49.350;8.152;2023-03-26T05:05:38;992.3;;;13.15;55.94
54459;BME280;40368;49.350;8.152;2023-03-26T05:06:39;992.3;;;13.15;55.71
54459;BME280;40368;49.350;8.152;2023-03-26T05:07:38;992.3;;;13.14;55.61
54459;BME280;40368;49.350;8.152;2023-03-26T05:08:38;992.3;;;13.13;55.79
54459;BME280;40368;49.350;8.152;2023-03-26T05:09:38;992.3;;;13.11;55.66
54459;BME280;40368;49.350;8.152;2023-03-26T05:10:38;992.2;;;13.1;55.87
54459;BME280;40368;49.350;8.152;2023-03-26T05:11:38;992.2;;;13.09;55.87
54459;BME280;40368;49.350;8.152;2023-03-26T05:12:38;992.2;;;13.08;55.91
54459;BME280;40368;49.350;8.152;2023-03-26T05:13:38;992.2;;;13.1;55.67
54459;BME280;40368;49.350;8.152;2023-03-26T05:14:38;992.2;;;13.13;55.66
54459;BME280;40368;49.350;8.152;2023-03-26T05:15:38;992.2;;;13.16;55.49
54459;BME280;40368;49.350;8.152;2023-03-26T05:16:38;992.1;;;13.21;55.35
54459;BME280;40368;49.350;8.152;2023-03-26T05:17:38;992.1;;;13.24;55.27
54459;BME280;40368;49.350;8.152;2023-03-26T05:18:38;992.1;;;13.26;55.37
54459;BME280;40368;49.350;8.152;2023-03-26T05:19:39;992.1;;;13.28;55.27
54459;BME280;40368;49.350;8.152;2023-03-26T05:20:38;992;;;13.3;55.42
54459;BME280;40368;49.350;8.152;2023-03-26T05:21:38;992;;;13.32;55.36
54459;BME280;40368;49.350;8.152;2023-03-26T05:22:38;992;;;13.32;55.46
54459;BME280;40368;49.350;8.152;2023-03-26T05:24:38;991.9;;;13.33;55.56
54459;BME280;40368;49.350;8.152;2023-03-26T05:25:38;991.9;;;13.33;55.62
54459;BME280;40368;49.350;8.152;2023-03-26T05:26:38;991.9;;;13.35;55.62
54459;BME280;40368;49.350;8.152;2023-03-26T05:27:38;991.9;;;13.33;55.59
54459;BME280;40368;49.350;8.152;2023-03-26T05:28:38;991.8;;;13.31;55.93
54459;BME280;40368;49.350;8.152;2023-03-26T05:29:38;991.8;;;13.31;55.82
54459;BME280;40368;49.350;8.152;2023-03-26T05:30:38;991.8;;;13.31;56.43
54459;BME280;40368;49.350;8.152;2023-03-26T05:31:38;991.8;;;13.29;56.25
54459;BME280;40368;49.350;8.152;2023-03-26T05:32:38;991.8;;;13.27;56.25
54459;BME280;40368;49.350;8.152;2023-03-26T05:33:38;991.8;;;13.26;56.34
54459;BME280;40368;49.350;8.152;2023-03-26T05:34:38;991.7;;;13.25;56.21
54459;BME280;40368;49.350;8.152;2023-03-26T05:35:38;991.7;;;13.27;56.21
54459;BME280;40368;49.350;8.152;2023-03-26T05:36:38;991.7;;;13.28;56.37
54459;BME280;40368;49.350;8.152;2023-03-26T05:37:38;991.6;;;13.29;56.23
54459;BME280;40368;49.350;8.152;2023-03-26T05:38:38;991.6;;;13.3;56.28
54459;BME280;40368;49.350;8.152;2023-03-26T05:39:38;991.6;;;13.31;56.25
54459;BME280;40368;49.350;8.152;2023-03-26T05:40:39;991.6;;;13.32;56.41
54459;BME280;40368;49.350;8.152;2023-03-26T05:41:38;991.5;;;13.31;56.48